Wetterdaten: Mittwoch, 30.10.2013
Datum Zeit Temperatur Luftfeuchte Luftdruck Regen Wind Richtung Richtung Taupunkt Windchill Windben
30.10.2013 00:00 6,0 C 95 % 1021,5 hPa 0,0 l/m 0,2 km/h (0 Bft) N-NO 22 5,3 C 6,2 C 0,0 km/h (0 Bft)
30.10.2013 00:05 6,0 C 95 % 1021,4 hPa 0,0 l/m 0,2 km/h (0 Bft) NO 45 5,3 C 6,2 C 0,0 km/h (0 Bft)
30.10.2013 00:10 6,1 C 95 % 1021,4 hPa 0,0 l/m 0,2 km/h (0 Bft) NO 45 5,4 C 6,2 C 0,0 km/h (0 Bft)
30.10.2013 00:15 6,1 C 95 % 1021,4 hPa 0,0 l/m 0,0 km/h (0 Bft) S 180 5,4 C 6,2 C 0,0 km/h (0 Bft)
30.10.2013 00:20 6,1 C 95 % 1021,4 hPa 0,0 l/m 0,0 km/h (0 Bft) O 90 5,4 C 6,2 C 0,0 km/h (0 Bft)
30.10.2013 00:25 6,2 C 95 % 1021,4 hPa 0,0 l/m 0,0 km/h (0 Bft) O-NO 67 5,5 C 6,2 C 0,0 km/h (0 Bft)
30.10.2013 00:30 6,2 C 95 % 1021,4 hPa 0,0 l/m 0,0 km/h (0 Bft) S-SO 157 5,5 C 6,2 C 0,0 km/h (0 Bft)
30.10.2013 00:35 6,2 C 95 % 1021,4 hPa 0,0 l/m 0,0 km/h (0 Bft) NO 45 5,5 C 6,3 C 0,0 km/h (0 Bft)
30.10.2013 00:40 6,2 C 95 % 1021,4 hPa 0,0 l/m 0,0 km/h (0 Bft) NO 45 5,5 C 6,3 C 0,0 km/h (0 Bft)
30.10.2013 00:45 6,3 C 95 % 1021,6 hPa 0,0 l/m 0,0 km/h (0 Bft) NO 45 5,6 C 6,3 C 0,0 km/h (0 Bft)
30.10.2013 00:50 6,3 C 95 % 1021,6 hPa 0,0 l/m 0,0 km/h (0 Bft) NO 45 5,6 C 6,3 C 0,0 km/h (0 Bft)
30.10.2013 00:55 6,3 C 95 % 1021,6 hPa 0,0 l/m 0,0 km/h (0 Bft) NO 45 5,6 C 6,3 C 0,0 km/h (0 Bft)
30.10.2013 01:00 6,3 C 95 % 1021,6 hPa 0,0 l/m 0,0 km/h (0 Bft) N-NO 22 5,6 C 6,4 C 0,0 km/h (0 Bft)
30.10.2013 01:05 6,3 C 95 % 1021,7 hPa 0,0 l/m 0,0 km/h (0 Bft) NO 45 5,6 C 6,4 C 0,0 km/h (0 Bft)
30.10.2013 01:10 6,2 C 95 % 1021,7 hPa 0,0 l/m 0,0 km/h (0 Bft) NO 45 5,5 C 6,4 C 0,0 km/h (0 Bft)
30.10.2013 01:15 6,2 C 95 % 1021,7 hPa 0,0 l/m 0,0 km/h (0 Bft) NO 45 5,5 C 6,3 C 0,0 km/h (0 Bft)
30.10.2013 01:20 6,3 C 95 % 1021,7 hPa 0,0 l/m 0,0 km/h (0 Bft) NO 45 5,6 C 6,3 C 0,0 km/h (0 Bft)
30.10.2013 01:25 6,2 C 95 % 1021,8 hPa 0,7 l/m 0,0 km/h (0 Bft) S-SO 157 5,5 C 6,3 C 0,0 km/h (0 Bft)
30.10.2013 01:30 6,2 C 95 % 1021,8 hPa 0,0 l/m 0,0 km/h (0 Bft) O 90 5,5 C 6,3 C 0,0 km/h (0 Bft)
30.10.2013 01:35 6,2 C 95 % 1021,8 hPa 0,0 l/m 0,0 km/h (0 Bft) O 90 5,5 C 6,3 C 0,0 km/h (0 Bft)
30.10.2013 01:40 6,1 C 95 % 1021,8 hPa 0,0 l/m 0,0 km/h (0 Bft) O 90 5,4 C 6,3 C 0,0 km/h (0 Bft)
30.10.2013 01:45 6,1 C 95 % 1021,9 hPa 0,0 l/m 0,0 km/h (0 Bft) O 90 5,4 C 6,2 C 0,0 km/h (0 Bft)
30.10.2013 01:50 6,1 C 95 % 1021,9 hPa 0,0 l/m 0,0 km/h (0 Bft) O 90 5,4 C 6,2 C 0,0 km/h (0 Bft)
30.10.2013 01:55 6,1 C 95 % 1021,9 hPa 0,0 l/m 0,0 km/h (0 Bft) S-SO 157 5,4 C 6,2 C 0,0 km/h (0 Bft)
30.10.2013 02:00 6,1 C 95 % 1021,9 hPa 0,0 l/m 0,0 km/h (0 Bft) O-SO 112 5,4 C 6,2 C 0,0 km/h (0 Bft)
30.10.2013 02:05 6,1 C 95 % 1022,1 hPa 0,0 l/m 0,2 km/h (0 Bft) O-SO 112 5,4 C 6,2 C 0,0 km/h (0 Bft)
30.10.2013 02:10 6,1 C 95 % 1022,1 hPa 0,0 l/m 0,2 km/h (0 Bft) O 90 5,4 C 6,2 C 0,0 km/h (0 Bft)
30.10.2013 02:15 6,0 C 95 % 1022,1 hPa 0,0 l/m 0,3 km/h (0 Bft) O 90 5,3 C 6,2 C 1,6 km/h (1 Bft)
30.10.2013 02:20 6,0 C 95 % 1022,1 hPa 0,7 l/m 0,3 km/h (0 Bft) S-SO 157 5,3 C 6,2 C 0,0 km/h (0 Bft)
30.10.2013 02:25 6,0 C 95 % 1022,2 hPa 0,0 l/m 0,5 km/h (0 Bft) O-SO 112 5,3 C 6,2 C 2,7 km/h (1 Bft)
30.10.2013 02:30 6,0 C 95 % 1022,2 hPa 0,0 l/m 0,5 km/h (0 Bft) O-SO 112 5,3 C 6,2 C 2,9 km/h (1 Bft)
30.10.2013 02:35 6,0 C 95 % 1022,2 hPa 0,0 l/m 0,2 km/h (0 Bft) NO 45 5,3 C 6,2 C 0,0 km/h (0 Bft)
30.10.2013 02:40 5,9 C 96 % 1022,2 hPa 0,0 l/m 0,0 km/h (0 Bft) NO 45 5,3 C 6,1 C 0,0 km/h (0 Bft)
30.10.2013 02:45 5,9 C 96 % 1022,1 hPa 0,0 l/m 0,0 km/h (0 Bft) N 360 5,3 C 6,1 C 0,0 km/h (0 Bft)
30.10.2013 02:50 5,9 C 96 % 1022,1 hPa 0,0 l/m 0,0 km/h (0 Bft) NW 315 5,3 C 6,1 C 0,0 km/h (0 Bft)
30.10.2013 02:55 5,8 C 96 % 1022,1 hPa 0,0 l/m 0,0 km/h (0 Bft) O-SO 112 5,2 C 6,0 C 0,0 km/h (0 Bft)
30.10.2013 03:00 5,8 C 96 % 1022,1 hPa 0,0 l/m 0,2 km/h (0 Bft) O 90 5,2 C 6,0 C 0,0 km/h (0 Bft)
30.10.2013 03:05 5,8 C 96 % 1022,2 hPa 0,0 l/m 0,2 km/h (0 Bft) O 90 5,2 C 6,0 C 0,0 km/h (0 Bft)
30.10.2013 03:10 5,8 C 96 % 1022,2 hPa 0,0 l/m 0,0 km/h (0 Bft) O 90 5,2 C 6,0 C 0,0 km/h (0 Bft)
30.10.2013 03:15 5,8 C 96 % 1022,2 hPa 0,0 l/m 0,0 km/h (0 Bft) O 90 5,2 C 6,0 C 0,0 km/h (0 Bft)
30.10.2013 03:20 5,7 C 96 % 1022,2 hPa 0,0 l/m 0,0 km/h (0 Bft) O-NO 67 5,1 C 6,0 C 0,0 km/h (0 Bft)
30.10.2013 03:25 5,6 C 96 % 1022,0 hPa 0,0 l/m 0,0 km/h (0 Bft) O-NO 67 5,0 C 6,0 C 0,0 km/h (0 Bft)
30.10.2013 03:30 5,6 C 96 % 1022,0 hPa 0,0 l/m 0,5 km/h (0 Bft) NO 45 5,0 C 5,9 C 3,4 km/h (1 Bft)
30.10.2013 03:35 5,5 C 96 % 1022,0 hPa 0,0 l/m 1,0 km/h (0 Bft) NO 45 4,9 C 5,8 C 0,0 km/h (0 Bft)
30.10.2013 03:40 5,5 C 96 % 1022,0 hPa 0,0 l/m 0,8 km/h (0 Bft) NO 45 4,9 C 5,7 C 3,4 km/h (1 Bft)
30.10.2013 03:45 5,5 C 96 % 1022,2 hPa 0,0 l/m 0,0 km/h (0 Bft) O-NO 67 4,9 C 5,7 C 0,0 km/h (0 Bft)
30.10.2013 03:49 5,5 C 96 % 1022,2 hPa 0,0 l/m 0,0 km/h (0 Bft) O-NO 67 4,9 C 5,7 C 0,0 km/h (0 Bft)
30.10.2013 03:50 5,5 C 96 % 1022,2 hPa 0,0 l/m 0,0 km/h (0 Bft) O-NO 67 4,9 C 5,7 C 0,0 km/h (0 Bft)
30.10.2013 03:55 5,5 C 96 % 1022,2 hPa 0,0 l/m 0,0 km/h (0 Bft) NO 45 4,9 C 5,7 C 0,0 km/h (0 Bft)
30.10.2013 04:00 5,6 C 96 % 1022,2 hPa 0,0 l/m 0,2 km/h (0 Bft) O-NO 67 5,0 C 5,7 C 1,6 km/h (1 Bft)
30.10.2013 04:05 5,6 C 96 % 1022,3 hPa 0,0 l/m 1,0 km/h (0 Bft) O-NO 67 5,0 C 5,7 C 2,6 km/h (1 Bft)
30.10.2013 04:10 5,6 C 96 % 1022,3 hPa 0,0 l/m 1,3 km/h (1 Bft) O 90 5,0 C 5,8 C 2,1 km/h (1 Bft)
30.10.2013 04:15 5,5 C 96 % 1022,3 hPa 0,0 l/m 0,8 km/h (0 Bft) NO 45 4,9 C 5,8 C 0,0 km/h (0 Bft)
30.10.2013 04:20 5,5 C 96 % 1022,3 hPa 0,0 l/m 0,6 km/h (0 Bft) O 90 4,9 C 5,7 C 0,0 km/h (0 Bft)
30.10.2013 04:25 5,5 C 96 % 1022,6 hPa 0,0 l/m 0,3 km/h (0 Bft) O-NO 67 4,9 C 5,7 C 0,0 km/h (0 Bft)
30.10.2013 04:30 5,5 C 96 % 1022,6 hPa 0,0 l/m 0,6 km/h (0 Bft) O 90 4,9 C 5,7 C 1,8 km/h (1 Bft)
30.10.2013 04:35 5,5 C 96 % 1022,6 hPa 0,0 l/m 0,8 km/h (0 Bft) NO 45 4,9 C 5,7 C 2,6 km/h (1 Bft)
30.10.2013 04:40 5,5 C 96 % 1022,6 hPa 0,0 l/m 0,5 km/h (0 Bft) O-NO 67 4,9 C 5,7 C 0,0 km/h (0 Bft)
30.10.2013 04:45 5,5 C 96 % 1022,7 hPa 0,0 l/m 0,3 km/h (0 Bft) O 90 4,9 C 5,6 C 0,0 km/h (0 Bft)
30.10.2013 04:50 5,5 C 96 % 1022,7 hPa 0,0 l/m 0,0 km/h (0 Bft) O-NO 67 4,9 C 5,6 C 0,0 km/h (0 Bft)
30.10.2013 04:55 5,5 C 96 % 1022,7 hPa 0,0 l/m 0,0 km/h (0 Bft) O-NO 67 4,9 C 5,6 C 0,0 km/h (0 Bft)
30.10.2013 05:00 5,5 C 96 % 1022,7 hPa 0,0 l/m 0,0 km/h (0 Bft) N-NO 22 4,9 C 5,6 C 0,0 km/h (0 Bft)
30.10.2013 05:05 5,5 C 96 % 1022,8 hPa 0,0 l/m 0,0 km/h (0 Bft) O-SO 112 4,9 C 5,6 C 0,0 km/h (0 Bft)
30.10.2013 05:10 5,5 C 96 % 1022,8 hPa 0,0 l/m 0,0 km/h (0 Bft) S-SO 157 4,9 C 5,7 C 0,0 km/h (0 Bft)
30.10.2013 05:15 5,5 C 96 % 1022,8 hPa 0,0 l/m 0,0 km/h (0 Bft) SO 135 4,9 C 5,7 C 0,0 km/h (0 Bft)
30.10.2013 05:20 5,5 C 97 % 1022,8 hPa 0,0 l/m 0,0 km/h (0 Bft) SO 135 5,1 C 5,7 C 0,0 km/h (0 Bft)
30.10.2013 05:25 5,5 C 97 % 1022,7 hPa 1,4 l/m 0,0 km/h (0 Bft) S-SO 157 5,1 C 5,6 C 0,0 km/h (0 Bft)
30.10.2013 05:30 5,5 C 97 % 1022,7 hPa 0,0 l/m 0,0 km/h (0 Bft) O 90 5,1 C 5,7 C 0,0 km/h (0 Bft)
30.10.2013 05:35 5,5 C 96 % 1022,7 hPa 0,0 l/m 0,0 km/h (0 Bft) O 90 4,9 C 5,7 C 0,0 km/h (0 Bft)
30.10.2013 05:40 5,5 C 96 % 1022,7 hPa 0,0 l/m 0,0 km/h (0 Bft) O-SO 112 4,9 C 5,7 C 0,0 km/h (0 Bft)
30.10.2013 05:45 5,5 C 96 % 1023,0 hPa 0,0 l/m 0,2 km/h (0 Bft) O-SO 112 4,9 C 5,7 C 0,0 km/h (0 Bft)
30.10.2013 05:50 5,5 C 96 % 1023,0 hPa 0,0 l/m 0,5 km/h (0 Bft) O 90 4,9 C 5,7 C 0,0 km/h (0 Bft)
30.10.2013 05:55 5,5 C 97 % 1023,0 hPa 0,0 l/m 0,5 km/h (0 Bft) O-SO 112 5,1 C 5,6 C 0,0 km/h (0 Bft)
30.10.2013 06:00 5,5 C 97 % 1023,0 hPa 0,0 l/m 0,5 km/h (0 Bft) O 90 5,1 C 5,6 C 1,9 km/h (1 Bft)
30.10.2013 06:05 5,4 C 97 % 1023,0 hPa 0,0 l/m 0,6 km/h (0 Bft) O-SO 112 5,0 C 5,6 C 0,0 km/h (0 Bft)
30.10.2013 06:10 5,4 C 97 % 1023,0 hPa 0,0 l/m 0,5 km/h (0 Bft) O-NO 67 5,0 C 5,6 C 0,0 km/h (0 Bft)
30.10.2013 06:15 5,4 C 97 % 1023,0 hPa 0,0 l/m 0,6 km/h (0 Bft) O-SO 112 5,0 C 5,6 C 4,5 km/h (1 Bft)
30.10.2013 06:20 5,4 C 97 % 1023,0 hPa 0,0 l/m 0,6 km/h (0 Bft) O-NO 67 5,0 C 5,6 C 0,0 km/h (0 Bft)
30.10.2013 06:25 5,4 C 97 % 1023,3 hPa 0,0 l/m 0,3 km/h (0 Bft) S-SO 157 5,0 C 5,6 C 0,0 km/h (0 Bft)
30.10.2013 06:30 5,4 C 97 % 1023,3 hPa 0,0 l/m 0,3 km/h (0 Bft) S-SO 157 5,0 C 5,6 C 0,0 km/h (0 Bft)
30.10.2013 06:35 5,4 C 97 % 1023,3 hPa 0,0 l/m 0,3 km/h (0 Bft) O-SO 112 5,0 C 5,6 C 0,0 km/h (0 Bft)
30.10.2013 06:40 5,4 C 97 % 1023,3 hPa 0,0 l/m 0,2 km/h (0 Bft) O-SO 112 5,0 C 5,6 C 0,0 km/h (0 Bft)
30.10.2013 06:45 5,4 C 97 % 1023,5 hPa 0,0 l/m 0,0 km/h (0 Bft) SO 135 5,0 C 5,6 C 0,0 km/h (0 Bft)
30.10.2013 06:50 5,4 C 97 % 1023,5 hPa 0,0 l/m 0,0 km/h (0 Bft) SO 135 5,0 C 5,6 C 0,0 km/h (0 Bft)
30.10.2013 06:55 5,4 C 97 % 1023,5 hPa 0,7 l/m 0,0 km/h (0 Bft) SO 135 5,0 C 5,6 C 0,0 km/h (0 Bft)
30.10.2013 07:00 5,4 C 97 % 1023,5 hPa 0,0 l/m 0,0 km/h (0 Bft) S-SO 157 5,0 C 5,6 C 0,0 km/h (0 Bft)
30.10.2013 07:05 5,4 C 97 % 1023,8 hPa 0,0 l/m 0,0 km/h (0 Bft) O-SO 112 5,0 C 5,6 C 0,0 km/h (0 Bft)
30.10.2013 07:10 5,4 C 97 % 1023,8 hPa 0,0 l/m 0,0 km/h (0 Bft) O 90 5,0 C 5,6 C 0,0 km/h (0 Bft)
30.10.2013 07:15 5,4 C 97 % 1023,8 hPa 0,0 l/m 0,0 km/h (0 Bft) O 90 5,0 C 5,6 C 0,0 km/h (0 Bft)
30.10.2013 07:20 5,4 C 97 % 1023,8 hPa 0,0 l/m 0,0 km/h (0 Bft) O 90 5,0 C 5,6 C 0,0 km/h (0 Bft)
30.10.2013 07:25 5,4 C 97 % 1023,8 hPa 0,0 l/m 0,0 km/h (0 Bft) O 90 5,0 C 5,6 C 0,0 km/h (0 Bft)
30.10.2013 07:30 5,4 C 97 % 1023,8 hPa 0,0 l/m 0,0 km/h (0 Bft) O 90 5,0 C 5,6 C 0,0 km/h (0 Bft)
30.10.2013 07:35 5,5 C 97 % 1023,8 hPa 0,0 l/m 0,0 km/h (0 Bft) O 90 5,1 C 5,6 C 0,0 km/h (0 Bft)
30.10.2013 07:40 5,5 C 97 % 1023,8 hPa 0,0 l/m 0,0 km/h (0 Bft) O 90 5,1 C 5,6 C 0,0 km/h (0 Bft)
30.10.2013 07:45 5,4 C 97 % 1024,0 hPa 0,0 l/m 0,0 km/h (0 Bft) O 90 5,0 C 5,6 C 0,0 km/h (0 Bft)
30.10.2013 07:50 5,4 C 97 % 1024,0 hPa 0,0 l/m 0,0 km/h (0 Bft) O 90 5,0 C 5,6 C 0,0 km/h (0 Bft)
30.10.2013 07:55 5,4 C 97 % 1024,0 hPa 0,0 l/m 0,0 km/h (0 Bft) O 90 5,0 C 5,6 C 0,0 km/h (0 Bft)
30.10.2013 08:00 5,4 C 97 % 1024,0 hPa 0,0 l/m 0,0 km/h (0 Bft) O 90 5,0 C 5,6 C 0,0 km/h (0 Bft)
30.10.2013 08:05 5,4 C 97 % 1024,4 hPa 0,0 l/m 0,0 km/h (0 Bft) O 90 5,0 C 5,6 C 0,0 km/h (0 Bft)
30.10.2013 08:10 5,4 C 97 % 1024,4 hPa 0,0 l/m 0,0 km/h (0 Bft) O 90 5,0 C 5,6 C 0,0 km/h (0 Bft)
30.10.2013 08:15 5,4 C 97 % 1024,4 hPa 0,7 l/m 0,0 km/h (0 Bft) O 90 5,0 C 5,6 C 0,0 km/h (0 Bft)
30.10.2013 08:20 5,4 C 97 % 1024,4 hPa 0,0 l/m 0,0 km/h (0 Bft) O 90 5,0 C 5,6 C 0,0 km/h (0 Bft)
30.10.2013 08:25 5,5 C 97 % 1024,7 hPa 0,0 l/m 0,0 km/h (0 Bft) O 90 5,1 C 5,6 C 0,0 km/h (0 Bft)
30.10.2013 08:30 5,6 C 97 % 1024,7 hPa 0,0 l/m 0,0 km/h (0 Bft) O 90 5,2 C 5,6 C 0,0 km/h (0 Bft)
30.10.2013 08:35 5,6 C 97 % 1024,7 hPa 0,0 l/m 0,0 km/h (0 Bft) O 90 5,2 C 5,6 C 0,0 km/h (0 Bft)
30.10.2013 08:40 5,6 C 97 % 1024,7 hPa 0,0 l/m 0,0 km/h (0 Bft) O 90 5,2 C 5,6 C 0,0 km/h (0 Bft)
30.10.2013 08:45 5,6 C 97 % 1025,1 hPa 0,0 l/m 0,0 km/h (0 Bft) O 90 5,2 C 5,6 C 0,0 km/h (0 Bft)
30.10.2013 08:48 5,8 C 97 % 1025,1 hPa 0,0 l/m 0,0 km/h (0 Bft) O 90 5,4 C 5,6 C 0,0 km/h (0 Bft)
30.10.2013 08:50 5,8 C 97 % 1025,1 hPa 0,0 l/m 0,0 km/h (0 Bft) O 90 5,4 C 5,6 C 0,0 km/h (0 Bft)
30.10.2013 08:55 6,0 C 96 % 1025,1 hPa 0,0 l/m 0,0 km/h (0 Bft) O 90 5,4 C 5,6 C 0,0 km/h (0 Bft)
30.10.2013 09:00 6,0 C 96 % 1025,1 hPa 0,0 l/m 0,0 km/h (0 Bft) O 90 5,4 C 5,6 C 0,0 km/h (0 Bft)
30.10.2013 09:05 6,0 C 96 % 1025,4 hPa 0,0 l/m 0,0 km/h (0 Bft) O 90 5,4 C 5,6 C 0,0 km/h (0 Bft)
30.10.2013 09:10 6,0 C 96 % 1025,4 hPa 0,0 l/m 0,0 km/h (0 Bft) O 90 5,4 C 5,6 C 0,0 km/h (0 Bft)
30.10.2013 09:15 6,2 C 96 % 1025,4 hPa 0,0 l/m 0,0 km/h (0 Bft) O 90 5,6 C 5,6 C 0,0 km/h (0 Bft)
30.10.2013 09:20 6,4 C 96 % 1025,4 hPa 0,0 l/m 0,0 km/h (0 Bft) O 90 5,8 C 5,6 C 0,0 km/h (0 Bft)
30.10.2013 09:25 6,6 C 96 % 1025,2 hPa 0,0 l/m 0,0 km/h (0 Bft) O 90 6,0 C 5,6 C 0,0 km/h (0 Bft)
30.10.2013 09:30 6,5 C 96 % 1025,2 hPa 0,0 l/m 0,0 km/h (0 Bft) O 90 5,9 C 5,6 C 0,0 km/h (0 Bft)
30.10.2013 09:35 6,7 C 96 % 1025,2 hPa 0,0 l/m 0,0 km/h (0 Bft) O 90 6,1 C 5,6 C 0,0 km/h (0 Bft)
30.10.2013 09:40 6,8 C 96 % 1025,2 hPa 0,0 l/m 0,0 km/h (0 Bft) O 90 6,2 C 5,6 C 0,0 km/h (0 Bft)
30.10.2013 09:45 7,0 C 96 % 1025,3 hPa 0,0 l/m 0,0 km/h (0 Bft) O 90 6,4 C 5,6 C 0,0 km/h (0 Bft)
30.10.2013 09:50 7,2 C 96 % 1025,3 hPa 0,0 l/m 0,0 km/h (0 Bft) O 90 6,6 C 5,6 C 0,0 km/h (0 Bft)
30.10.2013 09:55 7,2 C 96 % 1025,3 hPa 0,0 l/m 0,0 km/h (0 Bft) O 90 6,6 C 5,6 C 0,0 km/h (0 Bft)
30.10.2013 10:00 7,2 C 96 % 1025,3 hPa 0,0 l/m 0,0 km/h (0 Bft) O 90 6,6 C 5,6 C 0,0 km/h (0 Bft)
30.10.2013 10:05 7,4 C 96 % 1025,6 hPa 0,0 l/m 0,0 km/h (0 Bft) O 90 6,8 C 5,6 C 0,0 km/h (0 Bft)
30.10.2013 10:10 7,4 C 96 % 1025,6 hPa 0,0 l/m 0,0 km/h (0 Bft) O 90 6,8 C 5,6 C 0,0 km/h (0 Bft)
30.10.2013 10:15 7,3 C 96 % 1025,6 hPa 0,0 l/m 0,0 km/h (0 Bft) O 90 6,7 C 5,6 C 0,0 km/h (0 Bft)
30.10.2013 10:20 7,4 C 96 % 1025,6 hPa 0,0 l/m 0,0 km/h (0 Bft) O 90 6,8 C 5,6 C 0,0 km/h (0 Bft)
30.10.2013 10:25 7,4 C 96 % 1025,6 hPa 0,0 l/m 0,0 km/h (0 Bft) O 90 6,8 C 5,6 C 0,0 km/h (0 Bft)
30.10.2013 10:30 7,5 C 96 % 1025,6 hPa 0,0 l/m 0,0 km/h (0 Bft) O 90 6,9 C 5,6 C 0,0 km/h (0 Bft)
30.10.2013 10:35 7,6 C 96 % 1025,6 hPa 0,0 l/m 0,0 km/h (0 Bft) O 90 7,0 C 5,6 C 0,0 km/h (0 Bft)
30.10.2013 10:40 7,6 C 96 % 1025,6 hPa 0,0 l/m 0,0 km/h (0 Bft) O 90 7,0 C 5,6 C 0,0 km/h (0 Bft)
30.10.2013 10:45 7,9 C 96 % 1025,8 hPa 0,0 l/m 0,0 km/h (0 Bft) O 90 7,3 C 5,6 C 0,0 km/h (0 Bft)
30.10.2013 10:50 7,9 C 96 % 1025,8 hPa 0,0 l/m 0,0 km/h (0 Bft) O 90 7,3 C 5,6 C 0,0 km/h (0 Bft)
30.10.2013 10:55 8,0 C 95 % 1025,8 hPa 0,0 l/m 0,0 km/h (0 Bft) O 90 7,2 C 5,6 C 0,0 km/h (0 Bft)
30.10.2013 11:00 7,9 C 95 % 1025,8 hPa 0,0 l/m 0,0 km/h (0 Bft) O 90 7,1 C 5,6 C 0,0 km/h (0 Bft)
30.10.2013 11:05 7,9 C 95 % 1026,0 hPa 0,0 l/m 0,0 km/h (0 Bft) O 90 7,1 C 5,6 C 0,0 km/h (0 Bft)
30.10.2013 11:10 7,9 C 95 % 1026,0 hPa 0,0 l/m 0,0 km/h (0 Bft) O 90 7,1 C 5,6 C 0,0 km/h (0 Bft)
30.10.2013 11:15 7,7 C 95 % 1026,0 hPa 0,0 l/m 0,0 km/h (0 Bft) O 90 7,0 C 5,6 C 0,0 km/h (0 Bft)
30.10.2013 11:20 7,5 C 94 % 1026,0 hPa 0,0 l/m 0,0 km/h (0 Bft) O 90 6,6 C 5,6 C 0,0 km/h (0 Bft)
30.10.2013 11:25 7,7 C 94 % 1025,9 hPa 0,0 l/m 0,0 km/h (0 Bft) O 90 6,8 C 5,6 C 0,0 km/h (0 Bft)
30.10.2013 11:30 7,9 C 93 % 1025,9 hPa 0,0 l/m 0,0 km/h (0 Bft) O 90 6,8 C 5,6 C 0,0 km/h (0 Bft)
30.10.2013 11:35 8,2 C 93 % 1025,9 hPa 0,0 l/m 0,0 km/h (0 Bft) O 90 7,1 C 5,6 C 0,0 km/h (0 Bft)
30.10.2013 11:40 8,4 C 92 % 1025,9 hPa 0,0 l/m 0,0 km/h (0 Bft) O 90 7,2 C 5,6 C 0,0 km/h (0 Bft)
30.10.2013 11:45 8,3 C 90 % 1026,1 hPa 0,0 l/m 0,0 km/h (0 Bft) O 90 6,8 C 5,6 C 0,0 km/h (0 Bft)
30.10.2013 11:50 8,7 C 90 % 1026,1 hPa 0,0 l/m 0,0 km/h (0 Bft) O 90 7,2 C 5,6 C 0,0 km/h (0 Bft)
30.10.2013 11:55 8,5 C 88 % 1026,1 hPa 0,0 l/m 0,0 km/h (0 Bft) O 90 6,6 C 5,6 C 0,0 km/h (0 Bft)
30.10.2013 12:00 8,3 C 86 % 1026,1 hPa 0,0 l/m 0,0 km/h (0 Bft) O 90 6,1 C 5,6 C 0,0 km/h (0 Bft)
30.10.2013 12:05 8,1 C 84 % 1026,2 hPa 0,0 l/m 0,0 km/h (0 Bft) O 90 5,6 C 5,6 C 0,0 km/h (0 Bft)
30.10.2013 12:10 8,1 C 84 % 1026,2 hPa 0,0 l/m 0,0 km/h (0 Bft) O 90 5,6 C 5,6 C 0,0 km/h (0 Bft)
30.10.2013 12:15 8,3 C 87 % 1026,2 hPa 0,0 l/m 0,0 km/h (0 Bft) O 90 6,3 C 5,6 C 0,0 km/h (0 Bft)
30.10.2013 12:20 8,5 C 87 % 1026,2 hPa 0,0 l/m 0,0 km/h (0 Bft) O 90 6,5 C 5,6 C 0,0 km/h (0 Bft)
30.10.2013 12:25 8,4 C 88 % 1026,1 hPa 0,0 l/m 0,0 km/h (0 Bft) O 90 6,5 C 5,6 C 0,0 km/h (0 Bft)
30.10.2013 12:30 7,9 C 85 % 1026,1 hPa 0,0 l/m 0,0 km/h (0 Bft) O 90 5,5 C 5,6 C 0,0 km/h (0 Bft)
30.10.2013 12:35 8,0 C 85 % 1026,1 hPa 0,0 l/m 0,0 km/h (0 Bft) O 90 5,6 C 5,6 C 0,0 km/h (0 Bft)
30.10.2013 12:40 8,1 C 87 % 1026,1 hPa 0,0 l/m 0,0 km/h (0 Bft) O 90 6,1 C 5,6 C 0,0 km/h (0 Bft)
30.10.2013 12:45 8,2 C 88 % 1025,8 hPa 0,0 l/m 0,0 km/h (0 Bft) O 90 6,3 C 5,6 C 0,0 km/h (0 Bft)
30.10.2013 12:50 8,4 C 89 % 1025,8 hPa 0,0 l/m 0,0 km/h (0 Bft) O 90 6,7 C 5,6 C 0,0 km/h (0 Bft)
30.10.2013 12:55 8,2 C 88 % 1025,8 hPa 0,0 l/m 0,0 km/h (0 Bft) O 90 6,3 C 5,6 C 0,0 km/h (0 Bft)
30.10.2013 13:00 8,1 C 88 % 1025,8 hPa 0,0 l/m 0,0 km/h (0 Bft) O 90 6,2 C 5,6 C 0,0 km/h (0 Bft)
30.10.2013 13:05 8,2 C 89 % 1025,5 hPa 0,0 l/m 0,0 km/h (0 Bft) O 90 6,5 C 5,6 C 0,0 km/h (0 Bft)
30.10.2013 13:10 8,3 C 89 % 1025,5 hPa 0,0 l/m 0,0 km/h (0 Bft) O 90 6,6 C 5,6 C 0,0 km/h (0 Bft)
30.10.2013 13:15 8,6 C 89 % 1025,5 hPa 0,0 l/m 0,0 km/h (0 Bft) O 90 6,9 C 5,6 C 0,0 km/h (0 Bft)
30.10.2013 13:20 8,7 C 89 % 1025,5 hPa 0,0 l/m 0,0 km/h (0 Bft) O 90 7,0 C 5,6 C 0,0 km/h (0 Bft)
30.10.2013 13:25 8,7 C 89 % 1025,5 hPa 0,0 l/m 0,0 km/h (0 Bft) O 90 7,0 C 5,6 C 0,0 km/h (0 Bft)
30.10.2013 13:30 8,8 C 89 % 1025,5 hPa 0,0 l/m 0,0 km/h (0 Bft) O 90 7,1 C 5,6 C 0,0 km/h (0 Bft)
30.10.2013 13:35 8,9 C 89 % 1025,5 hPa 0,0 l/m 0,0 km/h (0 Bft) O 90 7,2 C 5,6 C 0,0 km/h (0 Bft)
30.10.2013 13:40 9,0 C 88 % 1025,5 hPa 0,0 l/m 0,0 km/h (0 Bft) O 90 7,1 C 5,6 C 0,0 km/h (0 Bft)
30.10.2013 13:45 8,9 C 87 % 1025,1 hPa 0,0 l/m 0,0 km/h (0 Bft) O 90 6,9 C 5,6 C 0,0 km/h (0 Bft)
30.10.2013 13:49 8,8 C 83 % 1025,1 hPa 0,0 l/m 0,0 km/h (0 Bft) O 90 6,1 C 5,6 C 0,0 km/h (0 Bft)
30.10.2013 13:50 8,8 C 83 % 1025,1 hPa 0,0 l/m 0,0 km/h (0 Bft) O 90 6,1 C 5,6 C 0,0 km/h (0 Bft)
30.10.2013 13:55 9,2 C 84 % 1025,1 hPa 0,0 l/m 0,0 km/h (0 Bft) O 90 6,6 C 5,6 C 0,0 km/h (0 Bft)
30.10.2013 14:00 9,4 C 85 % 1025,1 hPa 0,0 l/m 0,0 km/h (0 Bft) O 90 7,0 C 5,6 C 0,0 km/h (0 Bft)
30.10.2013 14:05 9,2 C 81 % 1025,8 hPa 0,0 l/m 0,0 km/h (0 Bft) O 90 6,1 C 5,6 C 0,0 km/h (0 Bft)
30.10.2013 14:10 9,1 C 81 % 1025,8 hPa 0,0 l/m 0,0 km/h (0 Bft) O 90 6,0 C 5,6 C 0,0 km/h (0 Bft)
30.10.2013 14:15 9,0 C 81 % 1025,8 hPa 0,0 l/m 0,0 km/h (0 Bft) O 90 5,9 C 5,6 C 0,0 km/h (0 Bft)
30.10.2013 14:20 8,9 C 83 % 1025,8 hPa 0,0 l/m 0,0 km/h (0 Bft) O 90 6,2 C 5,6 C 0,0 km/h (0 Bft)
30.10.2013 14:25 9,0 C 85 % 1025,6 hPa 0,0 l/m 0,0 km/h (0 Bft) O 90 6,6 C 5,6 C 0,0 km/h (0 Bft)
30.10.2013 14:30 9,1 C 85 % 1025,6 hPa 0,0 l/m 0,0 km/h (0 Bft) O 90 6,7 C 5,6 C 0,0 km/h (0 Bft)
30.10.2013 14:35 8,9 C 84 % 1025,6 hPa 0,0 l/m 0,0 km/h (0 Bft) O 90 6,3 C 5,6 C 0,0 km/h (0 Bft)
30.10.2013 14:40 8,9 C 85 % 1025,6 hPa 0,0 l/m 0,0 km/h (0 Bft) O 90 6,5 C 5,6 C 0,0 km/h (0 Bft)
30.10.2013 14:45 8,8 C 83 % 1025,2 hPa 0,0 l/m 0,0 km/h (0 Bft) O 90 6,1 C 5,6 C 0,0 km/h (0 Bft)
30.10.2013 14:50 8,8 C 84 % 1025,2 hPa 0,0 l/m 0,0 km/h (0 Bft) O 90 6,2 C 5,6 C 0,0 km/h (0 Bft)
30.10.2013 14:55 8,6 C 83 % 1025,2 hPa 0,0 l/m 0,0 km/h (0 Bft) O 90 5,9 C 5,6 C 0,0 km/h (0 Bft)
30.10.2013 15:00 8,6 C 82 % 1025,2 hPa 0,0 l/m 0,0 km/h (0 Bft) O 90 5,7 C 5,6 C 0,0 km/h (0 Bft)
30.10.2013 15:05 8,6 C 81 % 1025,2 hPa 0,0 l/m 0,0 km/h (0 Bft) O 90 5,5 C 5,6 C 0,0 km/h (0 Bft)
30.10.2013 15:10 8,5 C 81 % 1025,2 hPa 0,0 l/m 0,0 km/h (0 Bft) O 90 5,4 C 5,6 C 0,0 km/h (0 Bft)
30.10.2013 15:15 8,4 C 82 % 1025,2 hPa 0,0 l/m 0,0 km/h (0 Bft) O 90 5,5 C 5,6 C 0,0 km/h (0 Bft)
30.10.2013 15:20 8,3 C 82 % 1025,2 hPa 0,0 l/m 0,0 km/h (0 Bft) O 90 5,4 C 5,6 C 0,0 km/h (0 Bft)
30.10.2013 15:25 8,4 C 84 % 1025,1 hPa 0,0 l/m 0,0 km/h (0 Bft) O 90 5,9 C 5,6 C 0,0 km/h (0 Bft)
30.10.2013 15:30 8,4 C 85 % 1025,1 hPa 0,0 l/m 0,0 km/h (0 Bft) O 90 6,0 C 5,6 C 0,0 km/h (0 Bft)
30.10.2013 15:35 8,3 C 85 % 1025,1 hPa 0,0 l/m 0,0 km/h (0 Bft) O 90 5,9 C 5,6 C 0,0 km/h (0 Bft)
30.10.2013 15:40 8,3 C 87 % 1025,1 hPa 0,0 l/m 0,0 km/h (0 Bft) O 90 6,3 C 5,6 C 0,0 km/h (0 Bft)
30.10.2013 15:45 8,3 C 87 % 1025,1 hPa 0,0 l/m 0,0 km/h (0 Bft) O 90 6,3 C 5,6 C 0,0 km/h (0 Bft)
30.10.2013 15:50 8,2 C 86 % 1025,1 hPa 0,0 l/m 0,0 km/h (0 Bft) O 90 6,0 C 5,6 C 0,0 km/h (0 Bft)
30.10.2013 15:55 8,1 C 85 % 1025,1 hPa 0,0 l/m 0,0 km/h (0 Bft) O 90 5,7 C 5,6 C 0,0 km/h (0 Bft)
30.10.2013 16:00 8,1 C 85 % 1025,1 hPa 0,0 l/m 0,0 km/h (0 Bft) O 90 5,7 C 5,6 C 0,0 km/h (0 Bft)
30.10.2013 16:05 8,1 C 86 % 1025,1 hPa 0,0 l/m 0,3 km/h (0 Bft) NO 45 5,9 C 8,7 C 2,1 km/h (1 Bft)
30.10.2013 16:10 8,0 C 87 % 1025,1 hPa 0,0 l/m 0,5 km/h (0 Bft) N-NW 337 6,0 C 8,6 C 0,0 km/h (0 Bft)
30.10.2013 16:15 8,0 C 88 % 1025,1 hPa 0,0 l/m 0,8 km/h (0 Bft) N 360 6,1 C 8,6 C 2,4 km/h (1 Bft)
30.10.2013 16:20 7,9 C 89 % 1025,1 hPa 0,0 l/m 0,8 km/h (0 Bft) N-NO 22 6,2 C 8,5 C 0,0 km/h (0 Bft)
30.10.2013 16:25 7,9 C 89 % 1025,2 hPa 0,0 l/m 1,4 km/h (1 Bft) N 360 6,2 C 8,3 C 0,0 km/h (0 Bft)
30.10.2013 16:30 7,8 C 89 % 1025,2 hPa 0,0 l/m 1,0 km/h (0 Bft) N-NO 22 6,1 C 8,3 C 1,8 km/h (1 Bft)
30.10.2013 16:35 7,8 C 89 % 1025,2 hPa 0,0 l/m 0,6 km/h (0 Bft) N 360 6,1 C 8,2 C 1,6 km/h (1 Bft)
30.10.2013 16:40 7,7 C 89 % 1025,2 hPa 0,0 l/m 0,5 km/h (0 Bft) N-NO 22 6,0 C 8,1 C 0,0 km/h (0 Bft)
30.10.2013 16:45 7,7 C 89 % 1025,3 hPa 0,0 l/m 1,0 km/h (0 Bft) N-NW 337 6,0 C 8,0 C 3,1 km/h (1 Bft)
30.10.2013 16:50 7,6 C 89 % 1025,3 hPa 0,0 l/m 1,1 km/h (1 Bft) W-NW 292 5,9 C 8,0 C 1,8 km/h (1 Bft)
30.10.2013 16:55 7,6 C 90 % 1025,3 hPa 0,0 l/m 0,8 km/h (0 Bft) NW 315 6,1 C 8,0 C 2,1 km/h (1 Bft)
30.10.2013 17:00 7,5 C 90 % 1025,3 hPa 0,0 l/m 1,0 km/h (0 Bft) W-NW 292 6,0 C 7,9 C 2,3 km/h (1 Bft)
30.10.2013 17:05 7,5 C 90 % 1025,5 hPa 0,0 l/m 1,8 km/h (1 Bft) N-NW 337 6,0 C 7,8 C 2,1 km/h (1 Bft)
30.10.2013 17:10 7,4 C 90 % 1025,5 hPa 0,0 l/m 1,4 km/h (1 Bft) W-NW 292 5,9 C 7,8 C 0,0 km/h (0 Bft)
30.10.2013 17:15 7,3 C 90 % 1025,5 hPa 0,0 l/m 0,5 km/h (0 Bft) N 360 5,8 C 7,7 C 0,0 km/h (0 Bft)
30.10.2013 17:20 7,2 C 89 % 1025,5 hPa 0,0 l/m 0,2 km/h (0 Bft) N-NO 22 5,5 C 7,6 C 0,0 km/h (0 Bft)
30.10.2013 17:25 7,1 C 89 % 1025,5 hPa 0,0 l/m 0,2 km/h (0 Bft) NO 45 5,4 C 7,4 C 1,6 km/h (1 Bft)
30.10.2013 17:30 7,1 C 89 % 1025,5 hPa 0,0 l/m 0,6 km/h (0 Bft) NO 45 5,4 C 7,4 C 2,1 km/h (1 Bft)
30.10.2013 17:35 7,1 C 89 % 1025,5 hPa 0,0 l/m 1,0 km/h (0 Bft) O-NO 67 5,4 C 7,4 C 0,0 km/h (0 Bft)
30.10.2013 17:40 7,0 C 89 % 1025,5 hPa 0,0 l/m 0,8 km/h (0 Bft) O 90 5,3 C 7,3 C 4,8 km/h (1 Bft)
30.10.2013 17:45 7,0 C 89 % 1025,5 hPa 0,0 l/m 0,8 km/h (0 Bft) N 360 5,3 C 7,2 C 2,1 km/h (1 Bft)
30.10.2013 17:50 6,9 C 90 % 1025,5 hPa 0,0 l/m 0,6 km/h (0 Bft) N-NO 22 5,4 C 7,2 C 2,1 km/h (1 Bft)
30.10.2013 17:55 6,9 C 90 % 1025,5 hPa 0,0 l/m 1,1 km/h (1 Bft) O-NO 67 5,4 C 7,1 C 2,1 km/h (1 Bft)
30.10.2013 18:00 6,9 C 90 % 1025,5 hPa 0,0 l/m 1,6 km/h (1 Bft) O-NO 67 5,4 C 7,1 C 2,4 km/h (1 Bft)
30.10.2013 18:05 6,9 C 90 % 1025,8 hPa 0,0 l/m 1,8 km/h (1 Bft) NO 45 5,4 C 7,1 C 2,3 km/h (1 Bft)
30.10.2013 18:10 6,9 C 90 % 1025,8 hPa 0,0 l/m 1,6 km/h (1 Bft) NO 45 5,4 C 7,1 C 1,9 km/h (1 Bft)
30.10.2013 18:15 6,9 C 90 % 1025,8 hPa 0,0 l/m 1,3 km/h (1 Bft) NO 45 5,4 C 7,1 C 1,6 km/h (1 Bft)
30.10.2013 18:20 6,8 C 90 % 1025,8 hPa 0,0 l/m 0,8 km/h (0 Bft) NO 45 5,3 C 7,1 C 0,0 km/h (0 Bft)
30.10.2013 18:25 6,8 C 90 % 1025,7 hPa 0,0 l/m 0,3 km/h (0 Bft) O 90 5,3 C 7,0 C 0,0 km/h (0 Bft)
30.10.2013 18:30 6,8 C 90 % 1025,7 hPa 0,0 l/m 0,3 km/h (0 Bft) O-NO 67 5,3 C 7,0 C 0,0 km/h (0 Bft)
30.10.2013 18:35 6,8 C 90 % 1025,7 hPa 0,0 l/m 0,3 km/h (0 Bft) NO 45 5,3 C 6,9 C 1,9 km/h (1 Bft)
30.10.2013 18:40 6,7 C 90 % 1025,7 hPa 0,0 l/m 0,2 km/h (0 Bft) O 90 5,2 C 6,9 C 0,0 km/h (0 Bft)
30.10.2013 18:45 6,6 C 90 % 1025,9 hPa 0,0 l/m 0,2 km/h (0 Bft) S 180 5,1 C 6,8 C 0,0 km/h (0 Bft)
30.10.2013 18:49 6,6 C 90 % 1025,9 hPa 0,0 l/m 0,5 km/h (0 Bft) O 90 5,1 C 6,8 C 1,8 km/h (1 Bft)
30.10.2013 18:50 6,6 C 90 % 1025,9 hPa 0,0 l/m 0,5 km/h (0 Bft) O 90 5,1 C 6,8 C 1,8 km/h (1 Bft)
30.10.2013 18:55 6,6 C 90 % 1025,9 hPa 0,0 l/m 0,6 km/h (0 Bft) O-NO 67 5,1 C 6,8 C 2,1 km/h (1 Bft)
30.10.2013 19:00 6,5 C 90 % 1025,9 hPa 0,0 l/m 0,8 km/h (0 Bft) NO 45 5,0 C 6,8 C 0,0 km/h (0 Bft)
30.10.2013 19:05 6,5 C 90 % 1026,0 hPa 0,0 l/m 0,6 km/h (0 Bft) O-NO 67 5,0 C 6,7 C 0,0 km/h (0 Bft)
30.10.2013 19:10 6,5 C 90 % 1026,0 hPa 0,0 l/m 0,3 km/h (0 Bft) O 90 5,0 C 6,6 C 2,3 km/h (1 Bft)
30.10.2013 19:15 6,4 C 90 % 1026,0 hPa 0,0 l/m 0,8 km/h (0 Bft) O 90 4,9 C 6,6 C 0,0 km/h (0 Bft)
30.10.2013 19:20 6,4 C 90 % 1026,0 hPa 0,0 l/m 1,1 km/h (1 Bft) O 90 4,9 C 6,6 C 0,0 km/h (0 Bft)
30.10.2013 19:25 6,4 C 90 % 1025,9 hPa 0,0 l/m 1,0 km/h (0 Bft) O-NO 67 4,9 C 6,6 C 2,6 km/h (1 Bft)
30.10.2013 19:30 6,5 C 90 % 1025,9 hPa 0,0 l/m 1,1 km/h (1 Bft) NO 45 5,0 C 6,6 C 1,9 km/h (1 Bft)
30.10.2013 19:35 6,4 C 90 % 1025,9 hPa 0,0 l/m 0,6 km/h (0 Bft) O 90 4,9 C 6,5 C 1,8 km/h (1 Bft)
30.10.2013 19:40 6,3 C 90 % 1025,9 hPa 0,0 l/m 0,3 km/h (0 Bft) O 90 4,8 C 6,5 C 0,0 km/h (0 Bft)
30.10.2013 19:45 6,2 C 90 % 1026,0 hPa 0,0 l/m 0,3 km/h (0 Bft) O-NO 67 4,7 C 6,4 C 0,0 km/h (0 Bft)
30.10.2013 19:50 6,2 C 90 % 1026,0 hPa 0,0 l/m 0,2 km/h (0 Bft) O-NO 67 4,7 C 6,3 C 2,4 km/h (1 Bft)
30.10.2013 19:55 6,1 C 90 % 1026,0 hPa 0,0 l/m 0,6 km/h (0 Bft) O-NO 67 4,6 C 6,2 C 1,6 km/h (1 Bft)
30.10.2013 20:00 6,1 C 90 % 1026,0 hPa 0,0 l/m 0,6 km/h (0 Bft) NO 45 4,6 C 6,2 C 0,0 km/h (0 Bft)
30.10.2013 20:05 5,9 C 92 % 1025,6 hPa 0,0 l/m 0,2 km/h (0 Bft) O-NO 67 4,7 C 6,0 C 0,0 km/h (0 Bft)
30.10.2013 20:10 5,9 C 92 % 1025,6 hPa 0,0 l/m 0,0 km/h (0 Bft) O-SO 112 4,7 C 5,9 C 0,0 km/h (0 Bft)
30.10.2013 20:15 5,8 C 92 % 1025,6 hPa 0,0 l/m 0,2 km/h (0 Bft) NO 45 4,6 C 5,8 C 0,0 km/h (0 Bft)
30.10.2013 20:20 5,8 C 92 % 1025,6 hPa 0,0 l/m 0,2 km/h (0 Bft) O-NO 67 4,6 C 5,7 C 0,0 km/h (0 Bft)
30.10.2013 20:25 5,7 C 92 % 1025,9 hPa 0,0 l/m 0,2 km/h (0 Bft) NO 45 4,5 C 5,6 C 0,0 km/h (0 Bft)
30.10.2013 20:30 5,7 C 92 % 1025,9 hPa 0,0 l/m 0,2 km/h (0 Bft) O-NO 67 4,5 C 5,5 C 1,6 km/h (1 Bft)
30.10.2013 20:35 5,7 C 92 % 1025,9 hPa 0,0 l/m 0,3 km/h (0 Bft) N-NO 22 4,5 C 5,5 C 0,0 km/h (0 Bft)
30.10.2013 20:40 5,6 C 92 % 1025,9 hPa 0,0 l/m 0,3 km/h (0 Bft) O 90 4,4 C 5,5 C 2,6 km/h (1 Bft)
30.10.2013 20:45 5,6 C 92 % 1026,0 hPa 0,0 l/m 1,3 km/h (1 Bft) NO 45 4,4 C 5,6 C 2,4 km/h (1 Bft)
30.10.2013 20:50 5,5 C 92 % 1026,0 hPa 0,0 l/m 1,9 km/h (1 Bft) NO 45 4,3 C 5,6 C 1,9 km/h (1 Bft)
30.10.2013 20:55 5,3 C 92 % 1026,0 hPa 0,0 l/m 1,6 km/h (1 Bft) O 90 4,1 C 5,6 C 2,7 km/h (1 Bft)
30.10.2013 21:00 5,3 C 92 % 1026,0 hPa 0,0 l/m 1,3 km/h (1 Bft) NO 45 4,1 C 5,4 C 1,8 km/h (1 Bft)
30.10.2013 21:05 5,2 C 92 % 1025,9 hPa 0,0 l/m 1,9 km/h (1 Bft) O-NO 67 4,0 C 5,3 C 2,7 km/h (1 Bft)
30.10.2013 21:10 5,1 C 92 % 1025,9 hPa 0,0 l/m 2,1 km/h (1 Bft) NO 45 3,9 C 5,2 C 3,2 km/h (1 Bft)
30.10.2013 21:15 4,9 C 93 % 1025,9 hPa 0,0 l/m 2,7 km/h (1 Bft) NO 45 3,9 C 5,0 C 4,2 km/h (1 Bft)
30.10.2013 21:20 4,9 C 93 % 1025,9 hPa 0,0 l/m 2,9 km/h (1 Bft) O-NO 67 3,9 C 5,0 C 2,6 km/h (1 Bft)
30.10.2013 21:25 4,7 C 93 % 1025,9 hPa 0,0 l/m 2,7 km/h (1 Bft) NO 45 3,7 C 4,7 C 2,6 km/h (1 Bft)
30.10.2013 21:30 4,6 C 93 % 1025,9 hPa 0,0 l/m 2,4 km/h (1 Bft) O-NO 67 3,6 C 4,6 C 2,1 km/h (1 Bft)
30.10.2013 21:35 4,5 C 93 % 1025,9 hPa 0,0 l/m 1,4 km/h (1 Bft) O-NO 67 3,5 C 4,3 C 2,1 km/h (1 Bft)
30.10.2013 21:40 4,4 C 93 % 1025,9 hPa 0,0 l/m 0,8 km/h (0 Bft) O 90 3,4 C 4,1 C 0,0 km/h (0 Bft)
30.10.2013 21:45 4,5 C 93 % 1026,1 hPa 0,0 l/m 1,0 km/h (0 Bft) O-NO 67 3,5 C 3,8 C 2,9 km/h (1 Bft)
30.10.2013 21:50 4,5 C 93 % 1026,1 hPa 0,0 l/m 1,0 km/h (0 Bft) NO 45 3,5 C 3,9 C 2,3 km/h (1 Bft)
30.10.2013 21:55 4,7 C 93 % 1026,1 hPa 0,0 l/m 1,8 km/h (1 Bft) N-NO 22 3,7 C 4,5 C 0,0 km/h (0 Bft)
30.10.2013 22:00 5,1 C 93 % 1026,1 hPa 0,0 l/m 1,6 km/h (1 Bft) N-NW 337 4,1 C 4,8 C 0,0 km/h (0 Bft)
30.10.2013 22:05 5,0 C 93 % 1026,1 hPa 0,0 l/m 1,1 km/h (1 Bft) N 360 4,0 C 5,3 C 0,0 km/h (0 Bft)
30.10.2013 22:10 4,7 C 94 % 1026,1 hPa 0,0 l/m 0,6 km/h (0 Bft) W-NW 292 3,8 C 5,2 C 0,0 km/h (0 Bft)
30.10.2013 22:15 4,6 C 94 % 1026,1 hPa 0,0 l/m 0,0 km/h (0 Bft) N-NO 22 3,7 C 5,0 C 0,0 km/h (0 Bft)
30.10.2013 22:20 4,8 C 94 % 1026,1 hPa 0,0 l/m 0,0 km/h (0 Bft) N-NW 337 3,9 C 5,1 C 0,0 km/h (0 Bft)
30.10.2013 22:25 4,9 C 94 % 1025,9 hPa 0,0 l/m 0,0 km/h (0 Bft) W-NW 292 4,0 C 5,1 C 0,0 km/h (0 Bft)
30.10.2013 22:30 4,9 C 94 % 1025,9 hPa 0,0 l/m 0,0 km/h (0 Bft) W-NW 292 4,0 C 5,1 C 0,0 km/h (0 Bft)
30.10.2013 22:35 4,7 C 94 % 1025,9 hPa 0,0 l/m 0,0 km/h (0 Bft) N 360 3,8 C 5,0 C 0,0 km/h (0 Bft)
30.10.2013 22:40 4,8 C 94 % 1025,9 hPa 0,0 l/m 0,0 km/h (0 Bft) N 360 3,9 C 4,8 C 0,0 km/h (0 Bft)
30.10.2013 22:45 4,7 C 94 % 1025,7 hPa 0,0 l/m 0,0 km/h (0 Bft) N 360 3,8 C 4,8 C 0,0 km/h (0 Bft)
30.10.2013 22:50 4,6 C 94 % 1025,7 hPa 0,0 l/m 0,0 km/h (0 Bft) N 360 3,7 C 4,7 C 0,0 km/h (0 Bft)
30.10.2013 22:55 4,6 C 94 % 1025,7 hPa 0,0 l/m 0,0 km/h (0 Bft) N 360 3,7 C 4,7 C 0,0 km/h (0 Bft)
30.10.2013 23:00 4,6 C 94 % 1025,7 hPa 0,0 l/m 0,0 km/h (0 Bft) N 360 3,7 C 4,7 C 0,0 km/h (0 Bft)
30.10.2013 23:05 4,5 C 94 % 1025,7 hPa 0,0 l/m 0,0 km/h (0 Bft) NW 315 3,6 C 4,5 C 0,0 km/h (0 Bft)
30.10.2013 23:10 4,3 C 94 % 1025,7 hPa 0,0 l/m 0,0 km/h (0 Bft) N 360 3,4 C 4,4 C 0,0 km/h (0 Bft)
30.10.2013 23:15 4,1 C 94 % 1025,7 hPa 0,0 l/m 0,0 km/h (0 Bft) W-NW 292 3,2 C 4,2 C 0,0 km/h (0 Bft)
30.10.2013 23:20 4,2 C 94 % 1025,7 hPa 0,0 l/m 0,0 km/h (0 Bft) N 360 3,3 C 4,2 C 0,0 km/h (0 Bft)
30.10.2013 23:25 4,3 C 94 % 1025,8 hPa 0,0 l/m 0,0 km/h (0 Bft) N 360 3,4 C 4,3 C 0,0 km/h (0 Bft)
30.10.2013 23:30 4,4 C 94 % 1025,8 hPa 0,0 l/m 0,0 km/h (0 Bft) N 360 3,5 C 4,4 C 0,0 km/h (0 Bft)
30.10.2013 23:35 4,8 C 94 % 1025,8 hPa 0,0 l/m 0,8 km/h (0 Bft) N-NW 337 3,9 C 4,7 C 3,1 km/h (1 Bft)
30.10.2013 23:40 5,0 C 94 % 1025,8 hPa 0,0 l/m 1,9 km/h (1 Bft) W-NW 292 4,1 C 5,0 C 6,1 km/h (2 Bft)
30.10.2013 23:43 5,1 C 94 % 1025,8 hPa 0,0 l/m 2,7 km/h (1 Bft) W-NW 292 4,2 C 5,3 C 2,7 km/h (1 Bft)
30.10.2013 23:45 5,1 C 94 % 1025,8 hPa 0,0 l/m 2,7 km/h (1 Bft) W-NW 292 4,2 C 5,3 C 2,7 km/h (1 Bft)
30.10.2013 23:50 5,2 C 94 % 1025,8 hPa 0,0 l/m 3,1 km/h (1 Bft) N-NW 337 4,3 C 5,3 C 2,7 km/h (1 Bft)
30.10.2013 23:55 5,2 C 95 % 1025,8 hPa 0,0 l/m 2,7 km/h (1 Bft) N-NW 337 4,5 C 5,4 C 3,1 km/h (1 Bft)
_ Min-Zeit 23:15 15:10 00:40 - 23:30 - - 23:15 21:45 23:30
Minimum _ 4,1 C 81 % 1021,4 hPa - 0,0 km/h (0 Bft) - - 3,2 C 3,8 C 0,0 km/h (0 Bft)
_ Max-Zeit 14:00 08:50 12:20 05:25 23:50 - - 10:50 16:05 23:40
Maximum _ 9,4 C 97 % 1026,2 hPa 1,4 l/m 3,1 km/h
N-NW (1 Bft)
- - 7,3 C 8,7 C 6,1 km/h
W-NW (2 Bft)
Durchschnitt _ 6,5 C 93 % 1024,6 hPa #4,1 l/m 0,3 km/h (0 Bft) NO - 5,4 C 5,9 C 0,5 km/h (0 Bft)